Time;durP1;ratioP1;P1;durP2;ratioP2;P2;SDS_P1;SDS_P2;PMS_P1;PMS_P2;Temp;Humidity;BMP_temperature;BMP_pressure;BME280_temperature;BME280_humidity;BME280_pressure;Samples;Min_cycle;Max_cycle;Signal;HPM_P1;HPM_P2
2023/06/25 00:00:34;;;;;;;2.83;2.53;;;20.50;59.40;19.70;96959.00;;;;4990541;28;20246;-83
2023/06/25 00:03:02;;;;;;;3.03;2.83;;;20.40;59.50;19.60;96954.00;;;;4991484;28;20710;-83
2023/06/25 00:05:29;;;;;;;2.90;2.63;;;20.40;59.70;19.60;96963.00;;;;4989831;28;20229;-83
2023/06/25 00:07:58;;;;;;;2.97;2.73;;;20.40;59.80;19.60;96952.00;;;;4989174;28;20220;-83
2023/06/25 00:10:25;;;;;;;2.90;2.70;;;20.40;59.90;19.60;96950.00;;;;4990511;28;20220;-82
2023/06/25 00:12:52;;;;;;;2.67;2.47;;;20.40;60.00;19.60;96952.00;;;;4986236;28;20238;-83
2023/06/25 00:15:19;;;;;;;2.90;2.60;;;20.40;60.20;19.60;96944.00;;;;4987000;28;20224;-82
2023/06/25 00:17:47;;;;;;;2.83;2.63;;;20.40;60.10;19.60;96945.00;;;;4987531;28;20899;-82
2023/06/25 00:20:16;;;;;;;3.20;2.90;;;20.30;59.90;19.50;96945.00;;;;4989959;28;20218;-82
2023/06/25 00:22:44;;;;;;;2.83;2.60;;;20.30;60.00;19.50;96945.00;;;;4988711;28;20285;-83
2023/06/25 00:25:14;;;;;;;2.97;2.77;;;20.30;59.90;19.50;96946.00;;;;4991474;28;20293;-82
2023/06/25 00:27:47;;;;;;;3.10;2.60;;;20.20;60.00;19.50;96945.00;;;;4989311;28;20210;-82
2023/06/25 00:30:16;;;;;;;2.97;2.67;;;20.20;60.20;19.50;96942.00;;;;4990943;28;20265;-82
2023/06/25 00:32:43;;;;;;;2.67;2.47;;;20.20;60.50;19.40;96942.00;;;;4992074;28;20681;-83
2023/06/25 00:35:11;;;;;;;3.27;2.97;;;20.20;60.60;19.40;96938.00;;;;4992383;28;20233;-83
2023/06/25 00:37:41;;;;;;;2.17;2.07;;;20.20;60.70;19.40;96946.00;;;;4993631;28;20239;-83
2023/06/25 00:40:09;;;;;;;3.17;2.60;;;20.20;60.80;19.40;96940.00;;;;4993249;28;20231;-82
2023/06/25 00:42:42;;;;;;;2.77;2.57;;;20.10;60.70;19.40;96942.00;;;;4992745;28;20257;-83
2023/06/25 00:45:11;;;;;;;2.63;2.43;;;20.10;61.00;19.30;96939.00;;;;4994311;28;20571;-83
2023/06/25 00:47:41;;;;;;;3.10;2.80;;;20.10;60.90;19.30;96926.00;;;;4994226;28;20656;-83
2023/06/25 00:50:11;;;;;;;3.13;2.90;;;20.10;60.90;19.30;96937.00;;;;4989466;28;20694;-83
2023/06/25 00:52:40;;;;;;;2.83;2.60;;;20.10;61.00;19.20;96926.00;;;;4985534;28;20234;-83
2023/06/25 00:55:09;;;;;;;3.33;2.47;;;20.10;60.90;19.20;96921.00;;;;4991568;28;20282;-83
2023/06/25 00:57:37;;;;;;;2.87;2.60;;;20.00;60.90;19.10;96927.00;;;;4990575;28;20302;-83
2023/06/25 01:00:06;;;;;;;3.00;2.80;;;20.00;60.90;19.10;96920.00;;;;4992510;28;20223;-83
2023/06/25 01:02:46;;;;;;;2.77;2.57;;;19.90;60.90;19.00;96923.00;;;;4990601;28;20211;-83
2023/06/25 01:05:23;;;;;;;2.63;2.43;;;19.80;61.10;19.00;96913.00;;;;4993267;28;20198;-83
2023/06/25 01:07:57;;;;;;;3.07;2.83;;;19.80;61.30;19.00;96913.00;;;;4991210;28;20194;-83
2023/06/25 01:10:25;;;;;;;3.30;3.00;;;19.80;61.60;19.00;96907.00;;;;4989683;28;20250;-83
2023/06/25 01:12:54;;;;;;;3.37;3.03;;;19.80;61.50;18.90;96906.00;;;;4990999;28;20268;-82
2023/06/25 01:15:22;;;;;;;3.07;2.87;;;19.80;61.60;18.90;96909.00;;;;5018972;23;20308;-82
2023/06/25 01:17:49;;;;;;;3.77;3.47;;;19.70;61.70;18.90;96901.00;;;;4987790;28;20281;-83
2023/06/25 01:20:16;;;;;;;3.70;3.40;;;19.70;61.70;18.90;96903.00;;;;4991915;28;20224;-83
2023/06/25 01:22:45;;;;;;;3.20;3.00;;;19.70;61.80;18.90;96905.00;;;;5010389;28;20205;-83
2023/06/25 01:25:12;;;;;;;3.40;3.10;;;19.70;61.90;18.80;96903.00;;;;4995322;28;20199;-82
2023/06/25 01:27:39;;;;;;;3.10;2.90;;;19.60;61.80;18.80;96896.00;;;;4982148;28;20641;-84
2023/06/25 01:30:09;;;;;;;3.33;3.03;;;19.60;61.80;18.80;96894.00;;;;4986389;28;20200;-84
2023/06/25 01:32:41;;;;;;;3.00;2.80;;;19.60;61.80;18.80;96895.00;;;;4987779;28;20195;-84
2023/06/25 01:35:09;;;;;;;2.93;2.67;;;19.60;61.90;18.80;96888.00;;;;4970333;28;20198;-84
2023/06/25 01:37:37;;;;;;;3.17;2.87;;;19.60;61.90;18.80;96888.00;;;;4984315;28;20214;-84
2023/06/25 01:40:09;;;;;;;3.33;3.13;;;19.60;62.00;18.80;96889.00;;;;5002540;28;20667;-84
2023/06/25 01:42:36;;;;;;;3.67;3.37;;;19.60;62.20;18.80;96888.00;;;;4990238;28;20275;-84
2023/06/25 01:45:05;;;;;;;3.40;3.20;;;19.60;62.10;18.80;96885.00;;;;4989482;28;20210;-84
2023/06/25 01:47:33;;;;;;;3.33;3.13;;;19.60;62.20;18.80;96884.00;;;;4986058;28;20375;-84
2023/06/25 01:50:00;;;;;;;3.30;3.10;;;19.60;62.10;18.70;96880.00;;;;4994134;28;20194;-84
2023/06/25 01:52:27;;;;;;;2.97;2.77;;;19.60;62.10;18.70;96879.00;;;;4992523;28;20209;-85
2023/06/25 01:54:54;;;;;;;3.30;3.10;;;19.50;61.90;18.70;96875.00;;;;4983485;28;20208;-84
2023/06/25 01:57:23;;;;;;;3.50;3.20;;;19.50;62.00;18.70;96886.00;;;;4991031;28;20285;-84
2023/06/25 01:59:50;;;;;;;3.50;3.30;;;19.50;62.20;18.70;96882.00;;;;4992292;28;20261;-84
2023/06/25 02:02:17;;;;;;;3.67;3.40;;;19.50;62.20;18.60;96874.00;;;;4991603;28;20228;-84
2023/06/25 02:04:44;;;;;;;3.37;3.13;;;19.50;62.30;18.60;96873.00;;;;4987199;28;20281;-84
2023/06/25 02:07:12;;;;;;;3.30;3.10;;;19.50;62.40;18.60;96872.00;;;;4984311;28;20199;-84
2023/06/25 02:09:39;;;;;;;3.37;3.17;;;19.40;62.40;18.60;96875.00;;;;4982683;28;20283;-84
2023/06/25 02:12:07;;;;;;;3.90;3.50;;;19.40;62.40;18.60;96861.00;;;;4990138;28;20197;-83
2023/06/25 02:14:36;;;;;;;3.00;2.80;;;19.40;62.30;18.50;96866.00;;;;4983913;28;20242;-84
2023/06/25 02:17:03;;;;;;;3.50;3.20;;;19.40;62.50;18.50;96865.00;;;;4987217;28;20203;-84
2023/06/25 02:19:30;;;;;;;3.30;3.00;;;19.40;62.40;18.50;96851.00;;;;4980065;28;20219;-84
2023/06/25 02:21:58;;;;;;;3.03;2.83;;;19.40;62.40;18.50;96863.00;;;;4987656;28;20317;-84
2023/06/25 02:24:25;;;;;;;3.40;3.10;;;19.40;62.50;18.50;96851.00;;;;4986089;28;20289;-84
2023/06/25 02:26:52;;;;;;;3.07;2.63;;;19.30;62.40;18.50;96855.00;;;;4980909;28;20209;-84
2023/06/25 02:29:19;;;;;;;2.97;2.77;;;19.30;62.30;18.40;96851.00;;;;4983321;28;20277;-84
2023/06/25 02:31:48;;;;;;;3.23;2.93;;;19.30;62.20;18.40;96852.00;;;;4989648;28;20670;-84
2023/06/25 02:34:16;;;;;;;3.33;3.03;;;19.20;62.10;18.40;96850.00;;;;4983688;28;20596;-85
2023/06/25 02:36:43;;;;;;;3.60;3.10;;;19.20;62.00;18.40;96850.00;;;;4979739;28;20204;-84
2023/06/25 02:39:11;;;;;;;3.13;2.83;;;19.20;62.00;18.30;96854.00;;;;4992127;28;20297;-85
2023/06/25 02:41:38;;;;;;;3.40;3.10;;;19.20;62.00;18.30;96848.00;;;;4990167;28;20229;-84
2023/06/25 02:44:05;;;;;;;3.13;2.83;;;19.20;62.00;18.30;96839.00;;;;4983852;28;20198;-84
2023/06/25 02:46:32;;;;;;;3.10;2.90;;;19.20;62.00;18.20;96850.00;;;;4991883;28;20210;-84
2023/06/25 02:49:01;;;;;;;3.17;2.87;;;19.10;62.00;18.20;96845.00;;;;4988755;28;21248;-84
2023/06/25 02:51:29;;;;;;;3.60;3.30;;;19.10;62.00;18.20;96843.00;;;;4993417;28;20198;-83
2023/06/25 02:53:56;;;;;;;3.83;3.43;;;19.10;62.00;18.20;96839.00;;;;4985888;28;20207;-84
2023/06/25 02:56:23;;;;;;;2.67;2.47;;;19.00;62.00;18.10;96837.00;;;;4987997;28;20205;-84
2023/06/25 02:58:50;;;;;;;3.23;3.03;;;19.00;62.90;18.10;96842.00;;;;4985825;28;20219;-84
2023/06/25 03:01:18;;;;;;;3.47;3.17;;;19.00;62.30;18.10;96827.00;;;;4992221;28;20304;-84
2023/06/25 03:03:45;;;;;;;3.10;2.90;;;18.90;62.40;18.10;96833.00;;;;4989893;28;20198;-84
2023/06/25 03:06:14;;;;;;;3.80;3.30;;;18.90;62.60;18.10;96834.00;;;;4991272;28;20222;-85
2023/06/25 03:08:41;;;;;;;3.37;3.07;;;18.90;62.70;18.10;96842.00;;;;4981782;28;20225;-84
2023/06/25 03:11:08;;;;;;;3.30;3.10;;;18.90;62.60;18.10;96831.00;;;;4989020;28;20202;-84
2023/06/25 03:13:36;;;;;;;3.43;3.13;;;18.90;62.70;18.10;96835.00;;;;4990040;28;20204;-84
2023/06/25 03:16:03;;;;;;;3.70;3.23;;;18.90;62.70;18.10;96834.00;;;;4986974;28;20198;-85
2023/06/25 03:18:30;;;;;;;4.03;3.70;;;18.90;62.80;18.10;96832.00;;;;4990941;28;20732;-84
2023/06/25 03:20:57;;;;;;;4.50;4.07;;;18.90;62.90;18.10;96828.00;;;;4987901;28;20225;-84
2023/06/25 03:23:26;;;;;;;3.97;3.67;;;18.90;63.10;18.10;96831.00;;;;4988401;28;20202;-84
2023/06/25 03:25:53;;;;;;;3.13;2.93;;;18.90;63.30;18.10;96839.00;;;;4987236;28;20584;-85
2023/06/25 03:28:20;;;;;;;3.50;3.20;;;18.90;63.20;18.10;96838.00;;;;4983196;28;20682;-85
2023/06/25 03:30:48;;;;;;;4.00;3.60;;;18.90;63.20;18.10;96838.00;;;;4987275;28;20289;-84
2023/06/25 03:33:15;;;;;;;3.60;3.30;;;18.90;64.00;18.10;96838.00;;;;4991446;28;20203;-84
2023/06/25 03:35:42;;;;;;;3.40;3.00;;;18.90;63.20;18.10;96839.00;;;;4989323;28;20972;-84
2023/06/25 03:38:10;;;;;;;4.17;3.10;;;18.90;63.20;18.10;96844.00;;;;4989721;28;20218;-84
2023/06/25 03:40:40;;;;;;;3.50;3.20;;;18.90;63.10;18.10;96841.00;;;;4989356;28;20203;-84
2023/06/25 03:43:07;;;;;;;3.53;3.30;;;18.90;63.00;18.10;96834.00;;;;4991590;28;20202;-84
2023/06/25 03:45:34;;;;;;;3.80;3.50;;;18.90;62.90;18.10;96833.00;;;;4987258;28;20198;-84
2023/06/25 03:48:04;;;;;;;3.77;3.47;;;18.90;63.00;18.10;96835.00;;;;4993025;28;20225;-84
2023/06/25 03:50:33;;;;;;;3.00;2.80;;;18.90;63.00;18.10;96842.00;;;;4990176;28;20678;-84
2023/06/25 03:53:01;;;;;;;3.40;3.10;;;18.90;63.10;18.10;96839.00;;;;4979928;28;20234;-84
2023/06/25 03:55:28;;;;;;;4.07;3.67;;;18.90;63.20;18.10;96837.00;;;;4989902;28;20202;-84
2023/06/25 03:57:58;;;;;;;4.10;3.73;;;18.90;63.20;18.10;96832.00;;;;4977754;28;20227;-84
2023/06/25 04:00:25;;;;;;;3.63;3.33;;;18.90;63.20;18.10;96833.00;;;;4978684;28;20198;-85
2023/06/25 04:02:52;;;;;;;3.70;3.40;;;18.90;63.20;18.00;96835.00;;;;4984912;28;20794;-85
2023/06/25 04:05:19;;;;;;;3.80;3.50;;;18.90;63.20;18.00;96826.00;;;;4988391;28;20738;-85
2023/06/25 04:07:47;;;;;;;3.50;3.20;;;18.90;63.10;18.00;96837.00;;;;4975614;28;20219;-84
2023/06/25 04:10:14;;;;;;;3.83;3.43;;;18.90;63.20;18.00;96839.00;;;;4982744;28;20194;-84
2023/06/25 04:12:41;;;;;;;4.30;4.00;;;18.90;63.20;18.00;96838.00;;;;4985991;28;20607;-84
2023/06/25 04:15:11;;;;;;;4.17;3.87;;;18.80;63.20;18.00;96833.00;;;;4986711;28;20589;-84
2023/06/25 04:17:39;;;;;;;3.57;3.27;;;18.90;63.50;18.00;96839.00;;;;4980935;28;20223;-84
2023/06/25 04:20:08;;;;;;;5.33;4.83;;;18.90;63.60;18.00;96836.00;;;;4988134;28;20722;-84
2023/06/25 04:22:35;;;;;;;5.10;4.33;;;18.80;63.50;18.00;96831.00;;;;4980633;28;20238;-84
2023/06/25 04:25:02;;;;;;;4.50;4.10;;;18.80;63.50;18.00;96832.00;;;;4981019;28;20200;-84
2023/06/25 04:27:29;;;;;;;4.67;4.27;;;18.80;63.50;18.00;96837.00;;;;4972757;28;20227;-84
2023/06/25 04:29:57;;;;;;;4.80;4.33;;;18.80;63.50;18.00;96827.00;;;;4986733;28;20668;-84
2023/06/25 04:32:25;;;;;;;4.40;3.97;;;18.80;63.60;18.10;96833.00;;;;4983575;28;20205;-84
2023/06/25 04:34:53;;;;;;;4.87;4.37;;;18.80;63.80;18.10;96829.00;;;;4984313;28;20205;-84
2023/06/25 04:37:20;;;;;;;4.47;4.17;;;18.80;63.80;18.10;96828.00;;;;4981562;28;20207;-84
2023/06/25 04:39:47;;;;;;;4.63;4.23;;;18.90;64.00;18.10;96827.00;;;;4983645;28;20206;-84
2023/06/25 04:42:16;;;;;;;4.30;3.90;;;18.90;64.10;18.10;96829.00;;;;4987553;28;20227;-85
2023/06/25 04:44:44;;;;;;;4.27;3.97;;;18.90;64.20;18.10;96833.00;;;;4978155;28;20278;-85
2023/06/25 04:47:11;;;;;;;4.40;4.00;;;18.90;64.30;18.10;96835.00;;;;4980391;28;20811;-83
2023/06/25 04:49:39;;;;;;;4.97;4.57;;;18.90;64.30;18.20;96830.00;;;;4977479;28;20199;-84
2023/06/25 04:52:07;;;;;;;5.00;4.60;;;18.90;65.20;18.20;96829.00;;;;4988258;28;20257;-85
2023/06/25 04:54:35;;;;;;;4.40;4.00;;;18.90;64.40;18.20;96834.00;;;;4975651;28;20203;-84
2023/06/25 04:57:02;;;;;;;4.53;4.13;;;19.00;64.50;18.20;96833.00;;;;4981863;28;20207;-85
2023/06/25 04:59:29;;;;;;;4.30;4.00;;;19.00;64.60;18.30;96834.00;;;;4974785;28;20710;-85
2023/06/25 05:01:56;;;;;;;4.97;4.47;;;19.00;64.70;18.30;96841.00;;;;4986991;28;20226;-85
2023/06/25 05:04:23;;;;;;;4.33;3.93;;;19.00;64.70;18.30;96838.00;;;;4989397;28;20709;-85
2023/06/25 05:06:53;;;;;;;4.63;4.23;;;19.00;65.60;18.30;96837.00;;;;4976098;28;20200;-85
2023/06/25 05:09:20;;;;;;;4.63;4.23;;;19.10;65.00;18.40;96830.00;;;;4988921;28;20221;-85
2023/06/25 05:11:47;;;;;;;4.50;4.10;;;19.10;64.90;18.40;96832.00;;;;4990337;28;20212;-85
2023/06/25 05:14:15;;;;;;;4.80;4.33;;;19.10;65.00;18.50;96832.00;;;;4993744;28;20206;-85
2023/06/25 05:16:42;;;;;;;5.03;4.63;;;19.20;65.10;18.50;96830.00;;;;4988475;28;20290;-85
2023/06/25 05:19:09;;;;;;;5.23;4.73;;;19.20;65.00;18.50;96827.00;;;;4987687;28;20223;-85
2023/06/25 05:21:36;;;;;;;5.10;4.47;;;19.20;64.90;18.60;96829.00;;;;4993801;28;20729;-85
2023/06/25 05:24:06;;;;;;;4.60;4.20;;;19.30;64.90;18.60;96828.00;;;;4995252;28;20195;-85
2023/06/25 05:26:33;;;;;;;4.93;4.53;;;19.30;64.90;18.70;96828.00;;;;4977576;28;20694;-85
2023/06/25 05:29:01;;;;;;;5.00;4.50;;;19.40;65.00;18.70;96838.00;;;;4993335;28;20920;-85
2023/06/25 05:31:30;;;;;;;5.20;4.70;;;19.40;65.10;18.80;96841.00;;;;4988601;28;20202;-85
2023/06/25 05:33:57;;;;;;;5.00;4.60;;;19.40;65.30;18.90;96833.00;;;;4978281;28;20199;-85
2023/06/25 05:36:24;;;;;;;5.03;4.63;;;19.50;65.40;18.90;96837.00;;;;4988380;28;20202;-85
2023/06/25 05:38:51;;;;;;;4.50;4.10;;;19.60;65.40;18.90;96840.00;;;;4993156;28;20218;-85
2023/06/25 05:41:20;;;;;;;5.47;4.87;;;19.60;65.40;19.00;96838.00;;;;4988526;28;20207;-85
2023/06/25 05:43:47;;;;;;;5.40;4.90;;;19.60;65.50;19.10;96844.00;;;;4990802;28;20289;-85
2023/06/25 05:46:15;;;;;;;5.00;4.60;;;19.70;65.40;19.10;96841.00;;;;4991674;28;20226;-85
2023/06/25 05:48:42;;;;;;;5.53;5.03;;;19.70;65.50;19.20;96839.00;;;;4992112;28;20285;-85
2023/06/25 05:51:10;;;;;;;5.73;5.20;;;19.80;65.50;19.30;96831.00;;;;4988109;28;20208;-85
2023/06/25 05:53:43;;;;;;;5.97;5.47;;;19.80;65.30;19.30;96834.00;;;;4986333;28;20196;-85
2023/06/25 05:56:11;;;;;;;6.33;4.83;;;19.90;65.50;19.40;96845.00;;;;4993766;28;20204;-86
2023/06/25 05:58:41;;;;;;;5.27;4.70;;;20.00;65.40;19.50;96839.00;;;;4988856;28;20309;-85
2023/06/25 06:01:08;;;;;;;5.30;4.80;;;20.00;65.40;19.50;96842.00;;;;4988430;28;20197;-85
2023/06/25 06:03:36;;;;;;;5.10;4.70;;;20.10;65.40;19.60;96843.00;;;;4992337;28;20251;-85
2023/06/25 06:06:04;;;;;;;5.53;5.03;;;20.20;65.50;19.70;96843.00;;;;4990296;28;20202;-85
2023/06/25 06:08:32;;;;;;;4.80;4.40;;;20.20;65.10;19.80;96849.00;;;;4992373;28;20242;-86
2023/06/25 06:10:59;;;;;;;4.43;4.07;;;20.30;64.90;19.80;96846.00;;;;4989023;28;20196;-85
2023/06/25 06:13:26;;;;;;;5.37;4.97;;;20.40;65.10;19.90;96839.00;;;;4989412;28;20273;-85
2023/06/25 06:15:55;;;;;;;4.83;4.43;;;20.50;65.10;20.00;96844.00;;;;4993531;28;20208;-87
2023/06/25 06:18:23;;;;;;;4.73;4.40;;;20.50;65.10;20.10;96838.00;;;;4976874;28;20236;-85
2023/06/25 06:20:51;;;;;;;4.90;4.50;;;20.60;64.90;20.10;96841.00;;;;4989840;28;20213;-85
2023/06/25 06:23:18;;;;;;;5.73;4.73;;;20.70;65.00;20.20;96836.00;;;;4980253;28;20256;-85
2023/06/25 06:25:46;;;;;;;4.97;4.57;;;20.70;64.80;20.30;96833.00;;;;4992927;28;20254;-85
2023/06/25 06:28:13;;;;;;;4.83;4.43;;;20.80;64.80;20.40;96833.00;;;;4993011;28;20306;-88
2023/06/25 06:30:40;;;;;;;4.63;4.23;;;20.80;64.70;20.40;96837.00;;;;4985992;28;20281;-86
2023/06/25 06:33:09;;;;;;;4.60;4.30;;;20.90;64.70;20.50;96836.00;;;;4989855;28;20199;-86
2023/06/25 06:35:46;;;;;;;4.93;4.47;;;21.00;64.50;20.60;96827.00;;;;4988647;28;20205;-86
2023/06/25 06:38:13;;;;;;;4.70;4.37;;;21.10;64.40;20.70;96831.00;;;;4981321;28;20580;-86
2023/06/25 06:40:40;;;;;;;5.10;4.70;;;21.20;64.40;20.80;96823.00;;;;4984572;28;20294;-86
2023/06/25 06:43:07;;;;;;;5.00;4.60;;;21.20;64.70;20.90;96831.00;;;;4993540;28;20276;-87
2023/06/25 06:45:36;;;;;;;4.70;4.30;;;21.30;64.60;20.90;96828.00;;;;4991694;28;20202;-88
2023/06/25 06:48:05;;;;;;;4.77;4.37;;;21.40;64.60;21.00;96833.00;;;;4992346;28;20727;-88
2023/06/25 06:50:34;;;;;;;4.67;4.17;;;21.50;63.90;21.10;96831.00;;;;4983341;28;20194;-86
2023/06/25 06:53:01;;;;;;;5.20;4.67;;;21.60;63.80;21.20;96829.00;;;;4992274;28;20674;-85
2023/06/25 06:55:28;;;;;;;5.00;4.60;;;21.60;63.80;21.40;96835.00;;;;4986043;28;20691;-86
2023/06/25 06:57:56;;;;;;;5.13;4.73;;;21.70;63.80;21.50;96827.00;;;;4986707;28;20274;-90
2023/06/25 07:00:23;;;;;;;4.47;4.10;;;21.80;63.60;21.60;96831.00;;;;4982062;28;20309;-85
2023/06/25 07:02:50;;;;;;;4.97;4.57;;;22.00;63.60;21.70;96828.00;;;;4985890;28;20237;-83
2023/06/25 07:05:19;;;;;;;4.67;4.27;;;22.10;63.50;21.80;96832.00;;;;4984314;28;20251;-84
2023/06/25 07:07:47;;;;;;;5.10;4.60;;;22.20;63.60;22.00;96834.00;;;;4986003;28;20211;-86
2023/06/25 07:10:14;;;;;;;4.77;4.43;;;22.30;63.60;22.10;96833.00;;;;4975591;28;20295;-86
2023/06/25 07:12:41;;;;;;;4.87;4.47;;;22.40;63.30;22.30;96827.00;;;;4973805;28;20196;-86
2023/06/25 07:15:11;;;;;;;5.57;4.97;;;22.60;63.20;22.40;96822.00;;;;4988041;28;20207;-85
2023/06/25 07:17:38;;;;;;;5.17;4.67;;;22.70;63.00;22.60;96823.00;;;;4978396;28;20314;-84
2023/06/25 07:20:08;;;;;;;5.20;4.23;;;22.90;62.90;22.80;96821.00;;;;4977155;28;20220;-83
2023/06/25 07:22:38;;;;;;;4.37;3.97;;;23.10;62.70;22.90;96826.00;;;;4975485;28;20624;-87
2023/06/25 07:25:08;;;;;;;5.40;4.90;;;23.20;62.40;23.10;96826.00;;;;4984098;28;20211;-87
2023/06/25 07:27:39;;;;;;;4.77;4.37;;;23.40;62.10;23.30;96816.00;;;;4985599;28;20658;-86
2023/06/25 07:30:08;;;;;;;4.33;3.93;;;23.50;61.70;23.50;96826.00;;;;4987667;28;20301;-87
2023/06/25 07:32:35;;;;;;;5.00;4.60;;;23.70;61.70;23.60;96820.00;;;;4985066;28;20280;-83
2023/06/25 07:35:02;;;;;;;4.53;4.10;;;23.90;61.10;23.80;96820.00;;;;4987283;28;20285;-84
2023/06/25 07:37:29;;;;;;;4.07;3.77;;;24.00;61.00;24.00;96820.00;;;;4989498;28;20773;-85
2023/06/25 07:39:57;;;;;;;4.00;3.70;;;24.20;60.60;24.10;96822.00;;;;4982934;28;20216;-86
2023/06/25 07:42:26;;;;;;;4.17;3.77;;;24.40;60.00;24.30;96815.00;;;;4973023;28;20715;-85
2023/06/25 07:44:53;;;;;;;4.10;3.27;;;24.50;59.50;24.40;96824.00;;;;4974783;28;20286;-86
2023/06/25 07:47:20;;;;;;;3.50;3.20;;;24.70;59.40;24.50;96824.00;;;;4972135;28;20572;-86
2023/06/25 07:49:48;;;;;;;3.50;3.20;;;24.80;59.00;24.70;96823.00;;;;4975803;28;20940;-86
2023/06/25 07:52:15;;;;;;;3.63;3.33;;;25.00;58.80;24.80;96824.00;;;;4970056;28;20207;-85
2023/06/25 07:54:42;;;;;;;3.17;2.97;;;25.10;58.50;25.00;96817.00;;;;4984947;28;20199;-85
2023/06/25 07:57:09;;;;;;;3.60;3.30;;;25.30;58.00;25.10;96815.00;;;;4980104;28;20230;-85
2023/06/25 07:59:38;;;;;;;3.47;3.23;;;25.40;57.80;25.30;96817.00;;;;4976387;28;20202;-86
2023/06/25 08:02:06;;;;;;;3.30;3.00;;;25.60;57.30;25.40;96813.00;;;;4991977;28;20282;-86
2023/06/25 08:04:35;;;;;;;3.47;3.17;;;25.70;57.20;25.60;96815.00;;;;4989099;28;20656;-86
2023/06/25 08:07:03;;;;;;;2.87;2.67;;;25.80;56.90;25.80;96821.00;;;;4989056;28;20198;-86
2023/06/25 08:09:31;;;;;;;2.63;2.43;;;26.00;56.40;25.90;96814.00;;;;4984786;28;20229;-85
2023/06/25 08:11:58;;;;;;;3.93;2.60;;;26.10;56.10;26.10;96816.00;;;;4984086;28;20580;-84
2023/06/25 08:14:26;;;;;;;2.77;2.57;;;26.30;55.70;26.20;96818.00;;;;4989784;28;20202;-86
2023/06/25 08:16:54;;;;;;;2.63;2.43;;;26.40;55.20;26.40;96815.00;;;;4975895;28;20199;-87
2023/06/25 08:19:22;;;;;;;4.77;2.50;;;26.60;55.00;26.50;96815.00;;;;4992447;28;20225;-87
2023/06/25 08:21:49;;;;;;;3.20;2.90;;;26.70;54.90;26.70;96814.00;;;;4980090;28;20204;-85
2023/06/25 08:24:17;;;;;;;2.60;2.30;;;26.80;54.60;26.80;96810.00;;;;4962263;28;20766;-87
2023/06/25 08:26:46;;;;;;;2.57;2.37;;;27.00;54.20;26.90;96809.00;;;;4988896;28;20276;-87
2023/06/25 08:29:14;;;;;;;2.27;2.17;;;27.10;53.90;27.10;96809.00;;;;4986284;28;20215;-87
2023/06/25 08:31:41;;;;;;;3.97;2.38;;;27.20;53.50;27.20;96814.00;;;;4979835;28;20627;-86
2023/06/25 08:34:10;;;;;;;3.90;2.67;;;27.40;53.20;27.40;96816.00;;;;4983914;28;20200;-86
2023/06/25 08:36:38;;;;;;;2.47;2.28;;;27.60;53.10;27.60;96813.00;;;;4992586;28;20650;-88
2023/06/25 08:39:05;;;;;;;2.60;2.40;;;27.70;52.80;27.70;96810.00;;;;4986093;28;20223;-86
2023/06/25 08:41:34;;;;;;;2.75;2.55;;;27.80;52.50;27.80;96820.00;;;;4986954;28;20202;-86
2023/06/25 08:44:02;;;;;;;2.60;2.40;;;28.00;52.40;28.00;96816.00;;;;4980985;28;20235;-88
2023/06/25 08:46:33;;;;;;;2.42;2.33;;;28.10;52.40;28.10;96814.00;;;;4992893;28;20648;-88
2023/06/25 08:49:04;;;;;;;2.25;2.05;;;28.30;52.20;28.30;96820.00;;;;4983522;28;20226;-88
2023/06/25 08:51:36;;;;;;;2.42;2.22;;;28.40;51.90;28.40;96819.00;;;;4988128;28;20261;-87
2023/06/25 08:54:04;;;;;;;2.60;2.40;;;28.60;51.40;28.60;96814.00;;;;4991815;28;20578;-88
2023/06/25 08:56:32;;;;;;;2.72;2.53;;;28.70;51.20;28.70;96814.00;;;;4995729;28;20198;-88
2023/06/25 08:58:59;;;;;;;2.58;2.38;;;28.90;50.80;28.90;96820.00;;;;4990036;28;20251;-89
2023/06/25 09:01:27;;;;;;;2.50;2.30;;;28.80;50.20;29.00;96802.00;;;;4985639;28;20207;-89
2023/06/25 09:08:50;;;;;;;2.58;2.10;;;29.40;49.30;29.50;96808.00;;;;4993605;28;20227;-85
2023/06/25 09:11:18;;;;;;;2.88;2.45;;;29.60;48.70;29.60;96818.00;;;;4996270;28;20636;-86
2023/06/25 09:13:45;;;;;;;2.38;2.22;;;29.70;48.90;29.70;96823.00;;;;5008879;28;20202;-87
2023/06/25 09:16:13;;;;;;;2.88;2.67;;;29.80;48.70;29.80;96814.00;;;;5010432;28;20210;-88
2023/06/25 09:18:40;;;;;;;2.55;2.35;;;29.90;48.30;30.00;96816.00;;;;5007561;28;20753;-87
2023/06/25 09:21:11;;;;;;;2.53;2.28;;;30.10;47.90;30.10;96813.00;;;;4995201;28;20286;-88
2023/06/25 09:23:38;;;;;;;5.47;2.72;;;30.20;47.10;30.20;96810.00;;;;4996144;28;20250;-89
2023/06/25 09:26:09;;;;;;;2.70;2.50;;;30.30;47.40;30.30;96807.00;;;;4995576;28;20202;-88
2023/06/25 09:28:49;;;;;;;3.08;2.78;;;30.40;47.30;30.40;96807.00;;;;5010015;28;20582;-89
2023/06/25 09:31:17;;;;;;;3.05;2.83;;;30.60;46.10;30.60;96810.00;;;;5005270;28;20206;-90
2023/06/25 09:33:52;;;;;;;2.67;2.47;;;30.70;46.30;30.70;96806.00;;;;4999080;28;20579;-90
2023/06/25 09:36:20;;;;;;;2.80;2.60;;;30.90;45.90;30.90;96806.00;;;;4996937;28;20194;-90
2023/06/25 09:38:49;;;;;;;2.55;2.38;;;31.00;46.10;31.00;96800.00;;;;5012637;28;20225;-90
2023/06/25 09:41:22;;;;;;;2.63;2.45;;;31.20;45.60;31.20;96805.00;;;;5003802;28;20719;-90
2023/06/25 09:43:52;;;;;;;2.78;2.60;;;31.30;45.60;31.30;96804.00;;;;4993669;28;20230;-88
2023/06/25 09:46:22;;;;;;;3.17;2.88;;;31.50;45.70;31.50;96801.00;;;;4994513;28;20857;-89
2023/06/25 09:48:51;;;;;;;3.55;3.25;;;31.70;44.60;31.60;96806.00;;;;4996610;28;20222;-87
2023/06/25 09:51:28;;;;;;;2.58;2.38;;;31.90;43.50;31.70;96802.00;;;;4995937;28;20183;-89
2023/06/25 09:54:02;;;;;;;4.28;3.03;;;32.00;43.20;31.90;96801.00;;;;4996719;28;20214;-87
2023/06/25 09:56:34;;;;;;;2.70;2.50;;;32.30;43.30;32.00;96802.00;;;;4997038;28;20207;-88
2023/06/25 09:59:02;;;;;;;2.83;2.63;;;32.50;43.50;32.20;96798.00;;;;4996621;28;20234;-86
2023/06/25 10:01:29;;;;;;;2.90;2.70;;;32.80;43.40;32.40;96807.00;;;;4996832;28;20203;-88
2023/06/25 10:03:57;;;;;;;2.70;2.50;;;33.00;43.40;32.50;96803.00;;;;4995290;28;20250;-86
2023/06/25 10:06:25;;;;;;;3.58;2.97;;;33.30;42.80;32.70;96799.00;;;;5013824;28;20202;-85
2023/06/25 10:08:52;;;;;;;3.55;2.85;;;33.60;42.10;32.90;96800.00;;;;5014703;28;20279;-86
2023/06/25 10:11:19;;;;;;;3.10;2.85;;;33.90;41.50;33.10;96801.00;;;;5010271;28;20227;-85
2023/06/25 10:13:48;;;;;;;3.40;3.10;;;34.20;40.70;33.30;96796.00;;;;5003733;28;20663;-84
2023/06/25 10:16:19;;;;;;;3.30;2.80;;;34.40;39.90;33.50;96791.00;;;;4998690;28;20199;-85
2023/06/25 10:18:48;;;;;;;3.67;3.38;;;34.70;39.50;33.60;96801.00;;;;4997403;28;20242;-84
2023/06/25 10:21:28;;;;;;;3.10;2.90;;;34.90;39.10;33.70;96791.00;;;;4996153;28;20203;-85
2023/06/25 10:24:01;;;;;;;3.10;2.90;;;35.10;37.20;33.80;96794.00;;;;5002930;28;20226;-84
2023/06/25 10:26:30;;;;;;;3.22;2.88;;;35.20;37.60;33.90;96788.00;;;;5002567;28;20198;-84
2023/06/25 10:29:02;;;;;;;3.15;2.70;;;35.30;38.30;34.00;96790.00;;;;5004173;28;20256;-85
2023/06/25 10:31:38;;;;;;;3.17;2.88;;;35.40;37.90;34.10;96796.00;;;;4993218;28;20240;-84
2023/06/25 10:34:07;;;;;;;3.38;3.17;;;35.40;38.50;34.20;96795.00;;;;4993324;28;20199;-84
2023/06/25 10:36:34;;;;;;;3.15;2.95;;;35.50;38.10;34.30;96795.00;;;;4993356;28;20449;-84
2023/06/25 10:39:02;;;;;;;3.28;2.97;;;35.60;37.90;34.40;96790.00;;;;4989866;28;20250;-85
2023/06/25 10:41:30;;;;;;;3.15;2.95;;;35.70;37.50;34.50;96787.00;;;;5005508;28;20639;-84
2023/06/25 10:43:59;;;;;;;3.08;2.88;;;35.70;37.20;34.60;96788.00;;;;4996579;28;20269;-84
2023/06/25 10:46:31;;;;;;;3.53;3.22;;;35.70;36.00;34.70;96788.00;;;;4992346;28;20289;-84
2023/06/25 10:49:00;;;;;;;3.40;3.17;;;35.70;36.50;34.70;96781.00;;;;5005954;28;20241;-84
2023/06/25 10:51:29;;;;;;;3.40;3.08;;;35.70;35.90;34.70;96782.00;;;;4993808;28;20656;-84
2023/06/25 10:53:57;;;;;;;4.15;3.15;;;35.70;35.70;34.70;96787.00;;;;4993840;28;20237;-84
2023/06/25 10:56:25;;;;;;;3.05;2.85;;;35.70;35.50;34.70;96775.00;;;;5010625;28;20202;-84
2023/06/25 10:58:59;;;;;;;3.30;2.95;;;35.60;35.10;34.60;96770.00;;;;4999438;28;20219;-84
2023/06/25 11:01:33;;;;;;;3.53;3.15;;;35.40;34.90;34.50;96771.00;;;;5005801;28;20206;-84
2023/06/25 11:04:01;;;;;;;4.07;3.15;;;35.30;34.70;34.30;96774.00;;;;5006350;28;20222;-84